sensor_id;sensor_type;location;lat;lon;timestamp;temperature;humidity
7606;DHT22;3844;53.360;9.738;2022-08-02T00:00:57;9.40;94.20
7606;DHT22;3844;53.360;9.738;2022-08-02T00:02:57;9.40;94.40
7606;DHT22;3844;53.360;9.738;2022-08-02T00:04:58;9.40;94.20
7606;DHT22;3844;53.360;9.738;2022-08-02T00:09:02;9.30;94.20
7606;DHT22;3844;53.360;9.738;2022-08-02T00:11:02;9.30;94.40
7606;DHT22;3844;53.360;9.738;2022-08-02T00:13:03;9.30;94.30
7606;DHT22;3844;53.360;9.738;2022-08-02T00:15:08;9.30;94.40
7606;DHT22;3844;53.360;9.738;2022-08-02T00:17:09;9.20;94.40
7606;DHT22;3844;53.360;9.738;2022-08-02T00:19:10;9.20;94.70
7606;DHT22;3844;53.360;9.738;2022-08-02T00:21:11;9.20;94.50
7606;DHT22;3844;53.360;9.738;2022-08-02T00:23:12;9.20;94.60
7606;DHT22;3844;53.360;9.738;2022-08-02T00:25:13;9.20;94.80
7606;DHT22;3844;53.360;9.738;2022-08-02T00:27:13;9.20;94.60
7606;DHT22;3844;53.360;9.738;2022-08-02T00:29:14;9.20;94.80
7606;DHT22;3844;53.360;9.738;2022-08-02T00:31:15;9.20;94.70
7606;DHT22;3844;53.360;9.738;2022-08-02T00:33:16;9.20;94.60
7606;DHT22;3844;53.360;9.738;2022-08-02T00:35:16;9.20;94.60
7606;DHT22;3844;53.360;9.738;2022-08-02T00:37:17;9.20;94.60
7606;DHT22;3844;53.360;9.738;2022-08-02T00:39:18;9.20;94.40
7606;DHT22;3844;53.360;9.738;2022-08-02T00:41:20;9.20;94.20
7606;DHT22;3844;53.360;9.738;2022-08-02T00:45:22;9.20;94.00
7606;DHT22;3844;53.360;9.738;2022-08-02T00:47:23;9.20;94.20
7606;DHT22;3844;53.360;9.738;2022-08-02T00:49:24;9.10;94.30
7606;DHT22;3844;53.360;9.738;2022-08-02T00:51:24;9.10;94.40
7606;DHT22;3844;53.360;9.738;2022-08-02T00:53:25;9.10;94.20
7606;DHT22;3844;53.360;9.738;2022-08-02T00:55:26;9.10;94.30
7606;DHT22;3844;53.360;9.738;2022-08-02T00:57:27;9.10;94.20
7606;DHT22;3844;53.360;9.738;2022-08-02T00:59:28;9.10;93.90
7606;DHT22;3844;53.360;9.738;2022-08-02T01:01:28;9.00;94.20
7606;DHT22;3844;53.360;9.738;2022-08-02T01:05:39;9.00;94.40
7606;DHT22;3844;53.360;9.738;2022-08-02T01:07:40;9.00;94.40
7606;DHT22;3844;53.360;9.738;2022-08-02T01:09:42;9.00;94.40
7606;DHT22;3844;53.360;9.738;2022-08-02T01:11:42;8.90;94.40
7606;DHT22;3844;53.360;9.738;2022-08-02T01:13:43;8.90;94.50
7606;DHT22;3844;53.360;9.738;2022-08-02T01:15:48;8.90;94.50
7606;DHT22;3844;53.360;9.738;2022-08-02T01:18:11;8.80;94.60
7606;DHT22;3844;53.360;9.738;2022-08-02T01:22:47;8.70;95.10
7606;DHT22;3844;53.360;9.738;2022-08-02T01:28:11;8.60;95.10
7606;DHT22;3844;53.360;9.738;2022-08-02T01:29:55;8.50;95.40
7606;DHT22;3844;53.360;9.738;2022-08-02T01:32:10;8.60;95.50
7606;DHT22;3844;53.360;9.738;2022-08-02T01:36:43;8.50;95.40
7606;DHT22;3844;53.360;9.738;2022-08-02T01:38:49;8.50;95.30
7606;DHT22;3844;53.360;9.738;2022-08-02T01:40:52;8.50;95.20
7606;DHT22;3844;53.360;9.738;2022-08-02T01:42:55;8.50;95.20
7606;DHT22;3844;53.360;9.738;2022-08-02T01:44:58;8.50;95.00
7606;DHT22;3844;53.360;9.738;2022-08-02T01:47:02;8.50;94.90
7606;DHT22;3844;53.360;9.738;2022-08-02T01:49:08;8.40;95.00
7606;DHT22;3844;53.360;9.738;2022-08-02T01:51:12;8.40;95.10
7606;DHT22;3844;53.360;9.738;2022-08-02T01:53:14;8.40;95.10
7606;DHT22;3844;53.360;9.738;2022-08-02T01:55:19;8.30;95.10
7606;DHT22;3844;53.360;9.738;2022-08-02T01:57:22;8.30;95.20
7606;DHT22;3844;53.360;9.738;2022-08-02T01:59:24;8.20;95.20
7606;DHT22;3844;53.360;9.738;2022-08-02T02:01:26;8.20;95.30
7606;DHT22;3844;53.360;9.738;2022-08-02T02:03:28;8.20;95.40
7606;DHT22;3844;53.360;9.738;2022-08-02T02:05:31;8.10;95.50
7606;DHT22;3844;53.360;9.738;2022-08-02T02:07:33;8.10;95.60
7606;DHT22;3844;53.360;9.738;2022-08-02T02:09:37;8.10;95.60
7606;DHT22;3844;53.360;9.738;2022-08-02T02:11:40;8.10;95.70
7606;DHT22;3844;53.360;9.738;2022-08-02T02:13:43;8.10;95.70
7606;DHT22;3844;53.360;9.738;2022-08-02T02:15:47;8.10;95.70
7606;DHT22;3844;53.360;9.738;2022-08-02T02:17:48;8.10;95.70
7606;DHT22;3844;53.360;9.738;2022-08-02T02:19:50;8.00;95.70
7606;DHT22;3844;53.360;9.738;2022-08-02T02:21:52;8.00;95.70
7606;DHT22;3844;53.360;9.738;2022-08-02T02:23:53;8.00;95.70
7606;DHT22;3844;53.360;9.738;2022-08-02T02:25:55;7.90;95.70
7606;DHT22;3844;53.360;9.738;2022-08-02T02:28:16;7.90;95.70
7606;DHT22;3844;53.360;9.738;2022-08-02T02:30:22;7.90;95.70
7606;DHT22;3844;53.360;9.738;2022-08-02T02:32:25;7.90;95.70
7606;DHT22;3844;53.360;9.738;2022-08-02T02:34:29;7.80;95.70
7606;DHT22;3844;53.360;9.738;2022-08-02T02:36:30;7.90;95.70
7606;DHT22;3844;53.360;9.738;2022-08-02T02:38:33;7.80;95.70
7606;DHT22;3844;53.360;9.738;2022-08-02T02:40:34;7.80;95.70
7606;DHT22;3844;53.360;9.738;2022-08-02T02:42:37;7.80;95.70
7606;DHT22;3844;53.360;9.738;2022-08-02T02:44:38;7.80;95.70
7606;DHT22;3844;53.360;9.738;2022-08-02T02:46:40;7.80;95.70
7606;DHT22;3844;53.360;9.738;2022-08-02T02:48:41;7.80;95.70
7606;DHT22;3844;53.360;9.738;2022-08-02T02:50:42;7.80;95.70
7606;DHT22;3844;53.360;9.738;2022-08-02T02:52:44;7.80;95.70
7606;DHT22;3844;53.360;9.738;2022-08-02T02:54:47;7.80;95.70
7606;DHT22;3844;53.360;9.738;2022-08-02T02:56:48;7.80;95.70
7606;DHT22;3844;53.360;9.738;2022-08-02T02:58:50;7.80;95.70
7606;DHT22;3844;53.360;9.738;2022-08-02T03:00:54;7.80;95.70
7606;DHT22;3844;53.360;9.738;2022-08-02T03:03:14;7.70;95.70
7606;DHT22;3844;53.360;9.738;2022-08-02T03:05:16;7.70;95.70
7606;DHT22;3844;53.360;9.738;2022-08-02T03:07:16;7.70;95.70
7606;DHT22;3844;53.360;9.738;2022-08-02T03:09:17;7.70;95.70
7606;DHT22;3844;53.360;9.738;2022-08-02T03:11:18;7.70;95.70
7606;DHT22;3844;53.360;9.738;2022-08-02T03:13:19;7.70;95.70
7606;DHT22;3844;53.360;9.738;2022-08-02T03:15:20;7.70;95.70
7606;DHT22;3844;53.360;9.738;2022-08-02T03:19:22;7.70;95.70
7606;DHT22;3844;53.360;9.738;2022-08-02T03:21:23;7.80;95.70
7606;DHT22;3844;53.360;9.738;2022-08-02T03:23:23;7.80;95.70
7606;DHT22;3844;53.360;9.738;2022-08-02T03:25:24;7.80;95.70
7606;DHT22;3844;53.360;9.738;2022-08-02T03:27:25;7.80;95.70
7606;DHT22;3844;53.360;9.738;2022-08-02T03:29:25;7.80;95.70
7606;DHT22;3844;53.360;9.738;2022-08-02T03:31:27;7.80;95.70
7606;DHT22;3844;53.360;9.738;2022-08-02T03:33:28;7.90;95.70
7606;DHT22;3844;53.360;9.738;2022-08-02T03:35:29;7.90;95.70
7606;DHT22;3844;53.360;9.738;2022-08-02T03:37:31;7.90;95.70
7606;DHT22;3844;53.360;9.738;2022-08-02T03:39:32;7.90;95.70
7606;DHT22;3844;53.360;9.738;2022-08-02T03:41:36;7.90;95.70
7606;DHT22;3844;53.360;9.738;2022-08-02T03:43:37;7.90;95.70
7606;DHT22;3844;53.360;9.738;2022-08-02T03:45:42;7.90;95.70
7606;DHT22;3844;53.360;9.738;2022-08-02T03:47:43;7.90;95.70
7606;DHT22;3844;53.360;9.738;2022-08-02T03:49:45;7.90;95.70
7606;DHT22;3844;53.360;9.738;2022-08-02T03:51:45;7.90;95.70
7606;DHT22;3844;53.360;9.738;2022-08-02T03:53:47;8.00;95.70
7606;DHT22;3844;53.360;9.738;2022-08-02T03:55:47;8.00;95.70
7606;DHT22;3844;53.360;9.738;2022-08-02T03:57:49;8.00;95.70
7606;DHT22;3844;53.360;9.738;2022-08-02T03:59:51;8.00;95.70
7606;DHT22;3844;53.360;9.738;2022-08-02T04:01:51;8.00;95.70
7606;DHT22;3844;53.360;9.738;2022-08-02T04:03:52;8.00;95.70
7606;DHT22;3844;53.360;9.738;2022-08-02T04:05:53;8.00;95.70
7606;DHT22;3844;53.360;9.738;2022-08-02T04:07:53;8.00;95.70
7606;DHT22;3844;53.360;9.738;2022-08-02T04:11:55;8.00;95.70
7606;DHT22;3844;53.360;9.738;2022-08-02T04:13:57;8.00;95.70
7606;DHT22;3844;53.360;9.738;2022-08-02T04:18:07;8.00;95.70
7606;DHT22;3844;53.360;9.738;2022-08-02T04:20:13;8.00;95.70
7606;DHT22;3844;53.360;9.738;2022-08-02T04:22:24;8.00;95.70
7606;DHT22;3844;53.360;9.738;2022-08-02T04:24:33;8.00;95.70
7606;DHT22;3844;53.360;9.738;2022-08-02T04:26:36;7.90;95.70
7606;DHT22;3844;53.360;9.738;2022-08-02T04:28:38;7.90;95.70
7606;DHT22;3844;53.360;9.738;2022-08-02T04:30:39;7.90;95.70
7606;DHT22;3844;53.360;9.738;2022-08-02T04:32:41;7.90;95.70
7606;DHT22;3844;53.360;9.738;2022-08-02T04:34:44;7.80;95.70
7606;DHT22;3844;53.360;9.738;2022-08-02T04:36:46;7.90;95.70
7606;DHT22;3844;53.360;9.738;2022-08-02T04:38:48;7.90;95.70
7606;DHT22;3844;53.360;9.738;2022-08-02T04:40:51;7.90;95.70
7606;DHT22;3844;53.360;9.738;2022-08-02T04:42:52;7.90;95.70
7606;DHT22;3844;53.360;9.738;2022-08-02T04:44:53;7.90;95.70
7606;DHT22;3844;53.360;9.738;2022-08-02T04:46:54;7.90;95.70
7606;DHT22;3844;53.360;9.738;2022-08-02T04:48:55;7.90;95.70
7606;DHT22;3844;53.360;9.738;2022-08-02T04:50:56;7.90;95.70
7606;DHT22;3844;53.360;9.738;2022-08-02T04:52:57;8.00;95.70
7606;DHT22;3844;53.360;9.738;2022-08-02T04:54:57;8.00;95.70
7606;DHT22;3844;53.360;9.738;2022-08-02T04:56:58;8.20;95.70
7606;DHT22;3844;53.360;9.738;2022-08-02T04:58:59;8.40;95.70
7606;DHT22;3844;53.360;9.738;2022-08-02T05:01:00;8.60;95.70
7606;DHT22;3844;53.360;9.738;2022-08-02T05:03:00;8.90;95.70
7606;DHT22;3844;53.360;9.738;2022-08-02T05:05:01;9.10;95.70
7606;DHT22;3844;53.360;9.738;2022-08-02T05:07:02;9.40;95.70
7606;DHT22;3844;53.360;9.738;2022-08-02T05:09:03;9.70;95.70
7606;DHT22;3844;53.360;9.738;2022-08-02T05:11:03;10.00;95.50
7606;DHT22;3844;53.360;9.738;2022-08-02T05:13:04;10.30;94.80
7606;DHT22;3844;53.360;9.738;2022-08-02T05:15:06;10.60;93.90
7606;DHT22;3844;53.360;9.738;2022-08-02T05:17:07;10.90;94.00
7606;DHT22;3844;53.360;9.738;2022-08-02T05:19:07;11.30;93.40
7606;DHT22;3844;53.360;9.738;2022-08-02T05:21:08;11.70;92.20
7606;DHT22;3844;53.360;9.738;2022-08-02T05:23:09;12.10;91.10
7606;DHT22;3844;53.360;9.738;2022-08-02T05:25:10;12.50;90.30
7606;DHT22;3844;53.360;9.738;2022-08-02T05:27:13;12.80;89.40
7606;DHT22;3844;53.360;9.738;2022-08-02T05:29:14;13.20;88.70
7606;DHT22;3844;53.360;9.738;2022-08-02T05:31:15;13.50;87.90
7606;DHT22;3844;53.360;9.738;2022-08-02T05:33:16;13.80;86.60
7606;DHT22;3844;53.360;9.738;2022-08-02T05:35:21;14.00;86.10
7606;DHT22;3844;53.360;9.738;2022-08-02T05:37:21;14.30;85.40
7606;DHT22;3844;53.360;9.738;2022-08-02T05:39:22;14.50;84.80
7606;DHT22;3844;53.360;9.738;2022-08-02T05:41:23;14.70;84.80
7606;DHT22;3844;53.360;9.738;2022-08-02T05:43:24;14.90;84.30
7606;DHT22;3844;53.360;9.738;2022-08-02T05:45:24;15.10;84.00
7606;DHT22;3844;53.360;9.738;2022-08-02T05:47:25;15.30;83.50
7606;DHT22;3844;53.360;9.738;2022-08-02T05:49:26;15.50;83.70
7606;DHT22;3844;53.360;9.738;2022-08-02T05:51:42;15.70;83.50
7606;DHT22;3844;53.360;9.738;2022-08-02T05:57:03;16.00;83.00
7606;DHT22;3844;53.360;9.738;2022-08-02T05:59:11;16.20;82.80
7606;DHT22;3844;53.360;9.738;2022-08-02T06:01:13;16.40;81.60
7606;DHT22;3844;53.360;9.738;2022-08-02T06:03:52;16.50;81.60
7606;DHT22;3844;53.360;9.738;2022-08-02T06:06:10;16.70;82.20
7606;DHT22;3844;53.360;9.738;2022-08-02T06:08:12;16.90;82.10
7606;DHT22;3844;53.360;9.738;2022-08-02T06:10:15;17.20;81.50
7606;DHT22;3844;53.360;9.738;2022-08-02T06:12:16;17.50;80.50
7606;DHT22;3844;53.360;9.738;2022-08-02T06:14:18;17.80;80.20
7606;DHT22;3844;53.360;9.738;2022-08-02T06:16:20;18.10;80.10
7606;DHT22;3844;53.360;9.738;2022-08-02T06:18:22;18.60;79.10
7606;DHT22;3844;53.360;9.738;2022-08-02T06:20:25;19.00;78.30
7606;DHT22;3844;53.360;9.738;2022-08-02T06:22:27;19.40;76.40
7606;DHT22;3844;53.360;9.738;2022-08-02T06:24:30;19.60;75.30
7606;DHT22;3844;53.360;9.738;2022-08-02T06:26:32;19.90;75.10
7606;DHT22;3844;53.360;9.738;2022-08-02T06:28:38;20.20;74.30
7606;DHT22;3844;53.360;9.738;2022-08-02T06:30:38;20.40;73.60
7606;DHT22;3844;53.360;9.738;2022-08-02T06:32:40;20.70;72.90
7606;DHT22;3844;53.360;9.738;2022-08-02T06:34:43;20.80;72.10
7606;DHT22;3844;53.360;9.738;2022-08-02T06:37:00;20.90;72.30
7606;DHT22;3844;53.360;9.738;2022-08-02T06:39:14;21.00;71.50
7606;DHT22;3844;53.360;9.738;2022-08-02T06:41:17;21.10;71.30
7606;DHT22;3844;53.360;9.738;2022-08-02T06:45:28;21.60;69.90
7606;DHT22;3844;53.360;9.738;2022-08-02T06:47:29;21.70;69.00
7606;DHT22;3844;53.360;9.738;2022-08-02T06:49:29;21.80;68.60
7606;DHT22;3844;53.360;9.738;2022-08-02T06:51:30;21.90;68.70
7606;DHT22;3844;53.360;9.738;2022-08-02T06:53:32;22.10;68.10
7606;DHT22;3844;53.360;9.738;2022-08-02T06:55:33;22.30;67.80
7606;DHT22;3844;53.360;9.738;2022-08-02T06:57:34;22.50;64.30
7606;DHT22;3844;53.360;9.738;2022-08-02T06:59:35;22.60;64.90
7606;DHT22;3844;53.360;9.738;2022-08-02T07:01:35;22.80;65.50
7606;DHT22;3844;53.360;9.738;2022-08-02T07:03:38;23.00;65.30
7606;DHT22;3844;53.360;9.738;2022-08-02T07:05:40;23.20;65.30
7606;DHT22;3844;53.360;9.738;2022-08-02T07:07:41;23.40;63.70
7606;DHT22;3844;53.360;9.738;2022-08-02T07:09:42;23.40;63.10
7606;DHT22;3844;53.360;9.738;2022-08-02T07:11:43;23.60;62.40
7606;DHT22;3844;53.360;9.738;2022-08-02T07:13:44;23.60;61.80
7606;DHT22;3844;53.360;9.738;2022-08-02T07:15:44;23.80;62.10
7606;DHT22;3844;53.360;9.738;2022-08-02T07:17:45;24.00;61.10
7606;DHT22;3844;53.360;9.738;2022-08-02T07:19:46;24.10;61.40
7606;DHT22;3844;53.360;9.738;2022-08-02T07:21:46;24.30;60.00
7606;DHT22;3844;53.360;9.738;2022-08-02T07:23:47;24.60;61.00
7606;DHT22;3844;53.360;9.738;2022-08-02T07:25:48;25.00;60.90
7606;DHT22;3844;53.360;9.738;2022-08-02T07:27:49;25.40;58.60
7606;DHT22;3844;53.360;9.738;2022-08-02T07:29:49;25.30;57.90
7606;DHT22;3844;53.360;9.738;2022-08-02T07:31:50;25.40;58.60
7606;DHT22;3844;53.360;9.738;2022-08-02T07:33:51;25.80;57.80
7606;DHT22;3844;53.360;9.738;2022-08-02T07:35:52;25.90;57.20
7606;DHT22;3844;53.360;9.738;2022-08-02T07:37:53;26.20;57.20
7606;DHT22;3844;53.360;9.738;2022-08-02T07:39:54;26.40;56.40
7606;DHT22;3844;53.360;9.738;2022-08-02T07:41:54;26.70;55.70
7606;DHT22;3844;53.360;9.738;2022-08-02T07:43:55;26.70;54.20
7606;DHT22;3844;53.360;9.738;2022-08-02T07:45:56;26.40;54.50
7606;DHT22;3844;53.360;9.738;2022-08-02T07:47:57;26.40;55.70
7606;DHT22;3844;53.360;9.738;2022-08-02T07:49:57;26.50;55.90
7606;DHT22;3844;53.360;9.738;2022-08-02T07:51:58;26.80;55.60
7606;DHT22;3844;53.360;9.738;2022-08-02T07:53:59;27.00;55.30
7606;DHT22;3844;53.360;9.738;2022-08-02T07:55:59;27.30;55.00
7606;DHT22;3844;53.360;9.738;2022-08-02T07:58:00;27.40;54.00
7606;DHT22;3844;53.360;9.738;2022-08-02T08:00:01;27.70;54.10
7606;DHT22;3844;53.360;9.738;2022-08-02T08:02:02;28.20;54.00
7606;DHT22;3844;53.360;9.738;2022-08-02T08:04:03;28.50;52.40
7606;DHT22;3844;53.360;9.738;2022-08-02T08:06:04;28.60;51.60
7606;DHT22;3844;53.360;9.738;2022-08-02T08:08:05;28.50;52.40
7606;DHT22;3844;53.360;9.738;2022-08-02T08:10:06;28.40;52.00
7606;DHT22;3844;53.360;9.738;2022-08-02T08:12:08;28.30;52.90
7606;DHT22;3844;53.360;9.738;2022-08-02T08:14:09;28.20;50.60
7606;DHT22;3844;53.360;9.738;2022-08-02T08:16:09;28.20;52.80
7606;DHT22;3844;53.360;9.738;2022-08-02T08:18:10;28.20;51.70
7606;DHT22;3844;53.360;9.738;2022-08-02T08:20:11;28.10;52.10
7606;DHT22;3844;53.360;9.738;2022-08-02T08:22:13;28.40;50.40
7606;DHT22;3844;53.360;9.738;2022-08-02T08:24:13;28.50;50.80
7606;DHT22;3844;53.360;9.738;2022-08-02T08:26:14;28.60;51.80
7606;DHT22;3844;53.360;9.738;2022-08-02T08:28:15;28.90;51.10
7606;DHT22;3844;53.360;9.738;2022-08-02T08:30:17;29.20;50.70
7606;DHT22;3844;53.360;9.738;2022-08-02T08:32:18;29.30;49.50
7606;DHT22;3844;53.360;9.738;2022-08-02T08:34:19;29.10;49.30
7606;DHT22;3844;53.360;9.738;2022-08-02T08:36:19;29.00;50.80
7606;DHT22;3844;53.360;9.738;2022-08-02T08:38:20;29.30;50.10
7606;DHT22;3844;53.360;9.738;2022-08-02T08:40:23;29.60;50.30
7606;DHT22;3844;53.360;9.738;2022-08-02T08:42:29;30.00;49.90
7606;DHT22;3844;53.360;9.738;2022-08-02T08:44:30;30.00;49.40
7606;DHT22;3844;53.360;9.738;2022-08-02T08:46:34;29.90;49.60
7606;DHT22;3844;53.360;9.738;2022-08-02T08:48:39;29.90;49.70
7606;DHT22;3844;53.360;9.738;2022-08-02T08:50:54;30.00;49.70
7606;DHT22;3844;53.360;9.738;2022-08-02T08:55:04;29.80;48.80
7606;DHT22;3844;53.360;9.738;2022-08-02T08:57:05;29.60;49.80
7606;DHT22;3844;53.360;9.738;2022-08-02T08:59:06;29.80;49.00
7606;DHT22;3844;53.360;9.738;2022-08-02T09:01:08;29.90;49.40
7606;DHT22;3844;53.360;9.738;2022-08-02T09:03:08;29.90;49.60
7606;DHT22;3844;53.360;9.738;2022-08-02T09:05:10;30.00;49.70
7606;DHT22;3844;53.360;9.738;2022-08-02T09:07:11;30.00;48.80
7606;DHT22;3844;53.360;9.738;2022-08-02T09:11:23;29.90;49.50
7606;DHT22;3844;53.360;9.738;2022-08-02T09:13:27;29.90;48.90
7606;DHT22;3844;53.360;9.738;2022-08-02T09:15:29;29.90;48.50
7606;DHT22;3844;53.360;9.738;2022-08-02T09:17:29;30.00;49.40
7606;DHT22;3844;53.360;9.738;2022-08-02T09:19:30;30.40;49.70
7606;DHT22;3844;53.360;9.738;2022-08-02T09:21:35;30.70;48.30
7606;DHT22;3844;53.360;9.738;2022-08-02T09:23:41;30.80;49.30
7606;DHT22;3844;53.360;9.738;2022-08-02T09:27:47;30.70;47.70
7606;DHT22;3844;53.360;9.738;2022-08-02T09:29:52;30.70;47.50
7606;DHT22;3844;53.360;9.738;2022-08-02T09:32:01;30.80;49.10
7606;DHT22;3844;53.360;9.738;2022-08-02T09:36:14;31.40;48.30
7606;DHT22;3844;53.360;9.738;2022-08-02T09:38:15;31.20;45.80
7606;DHT22;3844;53.360;9.738;2022-08-02T09:40:34;30.90;46.40
7606;DHT22;3844;53.360;9.738;2022-08-02T09:42:35;30.70;48.00
7606;DHT22;3844;53.360;9.738;2022-08-02T09:44:35;30.60;48.00
7606;DHT22;3844;53.360;9.738;2022-08-02T09:46:38;30.80;49.20
7606;DHT22;3844;53.360;9.738;2022-08-02T09:49:09;31.30;47.30
7606;DHT22;3844;53.360;9.738;2022-08-02T09:51:10;31.50;46.20
7606;DHT22;3844;53.360;9.738;2022-08-02T09:53:12;31.20;46.80
7606;DHT22;3844;53.360;9.738;2022-08-02T09:55:13;31.10;46.50
7606;DHT22;3844;53.360;9.738;2022-08-02T09:57:25;30.90;47.50
7606;DHT22;3844;53.360;9.738;2022-08-02T09:59:27;30.70;46.30
7606;DHT22;3844;53.360;9.738;2022-08-02T10:01:32;30.70;45.60
7606;DHT22;3844;53.360;9.738;2022-08-02T10:03:33;30.70;46.90
7606;DHT22;3844;53.360;9.738;2022-08-02T10:06:06;31.00;46.10
7606;DHT22;3844;53.360;9.738;2022-08-02T10:08:07;31.10;45.90
7606;DHT22;3844;53.360;9.738;2022-08-02T10:10:08;31.70;45.90
7606;DHT22;3844;53.360;9.738;2022-08-02T10:12:10;31.90;46.30
7606;DHT22;3844;53.360;9.738;2022-08-02T10:14:11;31.50;44.10
7606;DHT22;3844;53.360;9.738;2022-08-02T10:16:12;31.40;46.40
7606;DHT22;3844;53.360;9.738;2022-08-02T10:18:13;31.50;46.20
7606;DHT22;3844;53.360;9.738;2022-08-02T10:20:14;31.50;45.90
7606;DHT22;3844;53.360;9.738;2022-08-02T10:22:15;31.30;44.70
7606;DHT22;3844;53.360;9.738;2022-08-02T10:24:22;31.20;45.60
7606;DHT22;3844;53.360;9.738;2022-08-02T10:26:24;31.50;44.60
7606;DHT22;3844;53.360;9.738;2022-08-02T10:28:26;31.60;43.90
7606;DHT22;3844;53.360;9.738;2022-08-02T10:30:39;31.60;41.30
7606;DHT22;3844;53.360;9.738;2022-08-02T10:32:45;31.30;43.20
7606;DHT22;3844;53.360;9.738;2022-08-02T10:34:56;31.10;45.40
7606;DHT22;3844;53.360;9.738;2022-08-02T10:37:02;31.20;46.40
7606;DHT22;3844;53.360;9.738;2022-08-02T10:39:04;31.80;46.10
7606;DHT22;3844;53.360;9.738;2022-08-02T10:41:05;32.30;45.50
7606;DHT22;3844;53.360;9.738;2022-08-02T10:45:12;32.70;41.50
7606;DHT22;3844;53.360;9.738;2022-08-02T10:47:18;32.70;42.60
7606;DHT22;3844;53.360;9.738;2022-08-02T10:49:21;32.70;41.10
7606;DHT22;3844;53.360;9.738;2022-08-02T10:51:22;32.80;41.10
7606;DHT22;3844;53.360;9.738;2022-08-02T10:53:24;32.60;41.80
7606;DHT22;3844;53.360;9.738;2022-08-02T10:57:32;32.10;42.50
7606;DHT22;3844;53.360;9.738;2022-08-02T10:59:35;31.80;43.00
7606;DHT22;3844;53.360;9.738;2022-08-02T11:01:42;32.10;44.10
7606;DHT22;3844;53.360;9.738;2022-08-02T11:03:44;32.40;44.20
7606;DHT22;3844;53.360;9.738;2022-08-02T11:06:05;32.50;43.80
7606;DHT22;3844;53.360;9.738;2022-08-02T11:08:20;32.80;44.20
7606;DHT22;3844;53.360;9.738;2022-08-02T11:10:35;33.00;43.30
7606;DHT22;3844;53.360;9.738;2022-08-02T11:15:03;32.80;42.80
7606;DHT22;3844;53.360;9.738;2022-08-02T11:17:06;32.70;42.70
7606;DHT22;3844;53.360;9.738;2022-08-02T11:19:08;32.70;43.20
7606;DHT22;3844;53.360;9.738;2022-08-02T11:21:25;32.40;42.70
7606;DHT22;3844;53.360;9.738;2022-08-02T11:23:37;32.00;43.20
7606;DHT22;3844;53.360;9.738;2022-08-02T11:25:37;31.70;44.40
7606;DHT22;3844;53.360;9.738;2022-08-02T11:27:39;31.70;44.00
7606;DHT22;3844;53.360;9.738;2022-08-02T11:29:43;31.70;44.20
7606;DHT22;3844;53.360;9.738;2022-08-02T11:31:44;31.80;43.70
7606;DHT22;3844;53.360;9.738;2022-08-02T11:33:48;32.30;44.00
7606;DHT22;3844;53.360;9.738;2022-08-02T11:35:49;32.80;43.70
7606;DHT22;3844;53.360;9.738;2022-08-02T11:37:50;33.00;42.90
7606;DHT22;3844;53.360;9.738;2022-08-02T11:39:50;33.00;43.80
7606;DHT22;3844;53.360;9.738;2022-08-02T11:41:57;33.10;42.30
7606;DHT22;3844;53.360;9.738;2022-08-02T11:43:58;33.30;41.90
7606;DHT22;3844;53.360;9.738;2022-08-02T11:46:12;33.40;43.10
7606;DHT22;3844;53.360;9.738;2022-08-02T11:48:13;33.50;43.50
7606;DHT22;3844;53.360;9.738;2022-08-02T11:50:14;33.40;43.80
7606;DHT22;3844;53.360;9.738;2022-08-02T11:52:16;33.30;43.80
7606;DHT22;3844;53.360;9.738;2022-08-02T11:54:35;33.30;42.10
7606;DHT22;3844;53.360;9.738;2022-08-02T11:58:38;33.20;40.30
7606;DHT22;3844;53.360;9.738;2022-08-02T12:02:45;32.80;42.00
7606;DHT22;3844;53.360;9.738;2022-08-02T12:06:58;33.00;44.90
7606;DHT22;3844;53.360;9.738;2022-08-02T12:11:04;34.10;40.90
7606;DHT22;3844;53.360;9.738;2022-08-02T12:13:05;34.20;41.00
7606;DHT22;3844;53.360;9.738;2022-08-02T12:15:06;34.20;39.30
7606;DHT22;3844;53.360;9.738;2022-08-02T12:17:07;33.90;41.10
7606;DHT22;3844;53.360;9.738;2022-08-02T12:19:26;33.90;41.70
7606;DHT22;3844;53.360;9.738;2022-08-02T12:21:28;33.90;42.70
7606;DHT22;3844;53.360;9.738;2022-08-02T12:23:29;33.60;41.90
7606;DHT22;3844;53.360;9.738;2022-08-02T12:25:30;33.10;40.80
7606;DHT22;3844;53.360;9.738;2022-08-02T12:27:34;32.80;42.00
7606;DHT22;3844;53.360;9.738;2022-08-02T12:29:39;32.70;42.70
7606;DHT22;3844;53.360;9.738;2022-08-02T12:31:41;32.70;44.00
7606;DHT22;3844;53.360;9.738;2022-08-02T12:33:49;32.70;44.00
7606;DHT22;3844;53.360;9.738;2022-08-02T12:35:50;32.50;43.30
7606;DHT22;3844;53.360;9.738;2022-08-02T12:37:50;32.40;43.40
7606;DHT22;3844;53.360;9.738;2022-08-02T12:41:56;32.10;45.00
7606;DHT22;3844;53.360;9.738;2022-08-02T12:45:58;32.90;43.10
7606;DHT22;3844;53.360;9.738;2022-08-02T12:48:00;33.00;42.90
7606;DHT22;3844;53.360;9.738;2022-08-02T12:50:32;32.80;41.40
7606;DHT22;3844;53.360;9.738;2022-08-02T12:52:34;32.60;42.40
7606;DHT22;3844;53.360;9.738;2022-08-02T12:54:39;32.50;43.10
7606;DHT22;3844;53.360;9.738;2022-08-02T12:56:40;32.70;43.40
7606;DHT22;3844;53.360;9.738;2022-08-02T12:58:50;32.90;41.50
7606;DHT22;3844;53.360;9.738;2022-08-02T13:00:58;32.80;41.20
7606;DHT22;3844;53.360;9.738;2022-08-02T13:02:59;32.60;42.20
7606;DHT22;3844;53.360;9.738;2022-08-02T13:05:03;32.70;43.00
7606;DHT22;3844;53.360;9.738;2022-08-02T13:07:04;32.70;42.30
7606;DHT22;3844;53.360;9.738;2022-08-02T13:09:16;32.90;43.40
7606;DHT22;3844;53.360;9.738;2022-08-02T13:11:16;33.00;43.20
7606;DHT22;3844;53.360;9.738;2022-08-02T13:13:17;33.10;42.10
7606;DHT22;3844;53.360;9.738;2022-08-02T13:15:19;32.90;43.40
7606;DHT22;3844;53.360;9.738;2022-08-02T13:17:20;32.40;43.40
7606;DHT22;3844;53.360;9.738;2022-08-02T13:19:21;32.10;42.20
7606;DHT22;3844;53.360;9.738;2022-08-02T13:21:22;31.70;44.40
7606;DHT22;3844;53.360;9.738;2022-08-02T13:23:23;31.50;44.60
7606;DHT22;3844;53.360;9.738;2022-08-02T13:25:24;31.50;45.70
7606;DHT22;3844;53.360;9.738;2022-08-02T13:27:26;31.70;46.20
7606;DHT22;3844;53.360;9.738;2022-08-02T13:29:27;31.70;43.80
7606;DHT22;3844;53.360;9.738;2022-08-02T13:31:28;31.50;44.10
7606;DHT22;3844;53.360;9.738;2022-08-02T13:33:28;31.40;45.10
7606;DHT22;3844;53.360;9.738;2022-08-02T13:35:29;31.30;45.60
7606;DHT22;3844;53.360;9.738;2022-08-02T13:37:30;31.40;46.80
7606;DHT22;3844;53.360;9.738;2022-08-02T13:39:32;31.00;44.90
7606;DHT22;3844;53.360;9.738;2022-08-02T13:41:33;30.70;45.10
7606;DHT22;3844;53.360;9.738;2022-08-02T13:43:35;30.80;47.30
7606;DHT22;3844;53.360;9.738;2022-08-02T13:45:36;30.80;45.90
7606;DHT22;3844;53.360;9.738;2022-08-02T13:47:38;30.80;45.70
7606;DHT22;3844;53.360;9.738;2022-08-02T13:49:39;30.70;45.40
7606;DHT22;3844;53.360;9.738;2022-08-02T13:51:41;30.70;45.40
7606;DHT22;3844;53.360;9.738;2022-08-02T13:53:41;30.80;46.50
7606;DHT22;3844;53.360;9.738;2022-08-02T13:55:45;30.90;46.00
7606;DHT22;3844;53.360;9.738;2022-08-02T13:57:46;31.20;46.10
7606;DHT22;3844;53.360;9.738;2022-08-02T13:59:47;31.40;47.90
7606;DHT22;3844;53.360;9.738;2022-08-02T14:01:47;31.40;46.10
7606;DHT22;3844;53.360;9.738;2022-08-02T14:03:51;31.30;45.70
7606;DHT22;3844;53.360;9.738;2022-08-02T14:05:54;31.30;46.80
7606;DHT22;3844;53.360;9.738;2022-08-02T14:07:56;31.50;47.90
7606;DHT22;3844;53.360;9.738;2022-08-02T14:09:57;31.60;46.30
7606;DHT22;3844;53.360;9.738;2022-08-02T14:11:58;31.70;47.20
7606;DHT22;3844;53.360;9.738;2022-08-02T14:13:59;31.80;48.00
7606;DHT22;3844;53.360;9.738;2022-08-02T14:16:00;31.90;46.90
7606;DHT22;3844;53.360;9.738;2022-08-02T14:18:00;31.90;47.00
7606;DHT22;3844;53.360;9.738;2022-08-02T14:20:01;31.80;46.40